createdAt,value
2023-04-15T00:02:00.981Z,44.08
2023-04-15T00:04:31.704Z,46.83
2023-04-15T00:07:00.487Z,47.42
2023-04-15T00:09:28.800Z,51.65
2023-04-15T00:11:57.753Z,44.40
2023-04-15T00:14:28.129Z,48.90
2023-04-15T00:16:57.416Z,45.17
2023-04-15T00:19:25.862Z,47.58
2023-04-15T00:21:54.206Z,50.72
2023-04-15T00:24:23.245Z,45.40
2023-04-15T00:26:51.669Z,48.40
2023-04-15T00:29:20.360Z,48.35
2023-04-15T00:31:50.054Z,54.33
2023-04-15T00:34:18.450Z,46.30
2023-04-15T00:36:46.949Z,52.13
2023-04-15T00:39:16.323Z,50.33
2023-04-15T00:41:45.615Z,51.20
2023-04-15T00:44:14.331Z,51.60
2023-04-15T00:46:44.247Z,48.72
2023-04-15T00:49:14.313Z,50.45
2023-04-15T00:51:42.643Z,47.00
2023-04-15T00:54:11.633Z,49.80
2023-04-15T00:56:40.951Z,48.03
2023-04-15T00:59:10.073Z,51.05
2023-04-15T01:01:38.858Z,53.55
2023-04-15T01:04:10.172Z,54.85
2023-04-15T01:06:39.955Z,52.70
2023-04-15T01:09:08.412Z,53.17
2023-04-15T01:11:36.917Z,54.08
2023-04-15T01:14:05.841Z,56.80
2023-04-15T01:16:34.303Z,54.53
2023-04-15T01:19:03.448Z,59.05
2023-04-15T01:21:31.876Z,60.95
2023-04-15T01:24:02.673Z,57.83
2023-04-15T01:26:32.404Z,58.95
2023-04-15T01:29:01.480Z,57.75
2023-04-15T01:31:29.923Z,60.90
2023-04-15T01:33:58.506Z,58.90
2023-04-15T01:36:26.860Z,53.65
2023-04-15T01:38:55.470Z,57.63
2023-04-15T01:41:26.600Z,57.28
2023-04-15T01:43:56.728Z,59.25
2023-04-15T01:46:25.289Z,56.33
2023-04-15T01:48:53.597Z,60.03
2023-04-15T01:51:22.021Z,61.15
2023-04-15T01:53:50.467Z,57.83
2023-04-15T01:56:18.818Z,59.55
2023-04-15T01:58:47.554Z,63.13
2023-04-15T02:01:19.555Z,61.65
2023-04-15T02:03:48.715Z,59.28
2023-04-15T02:06:18.350Z,55.90
2023-04-15T02:08:46.662Z,57.38
2023-04-15T02:11:15.476Z,54.83
2023-04-15T02:13:44.008Z,63.83
2023-04-15T02:16:20.763Z,55.03
2023-04-15T02:18:49.123Z,59.72
2023-04-15T02:21:18.967Z,55.25
2023-04-15T02:23:48.367Z,60.25
2023-04-15T02:26:16.951Z,65.70
2023-04-15T02:28:45.327Z,63.17
2023-04-15T02:31:13.718Z,60.08
2023-04-15T02:33:43.601Z,61.08
2023-04-15T02:36:12.439Z,62.10
2023-04-15T02:38:42.378Z,60.58
2023-04-15T02:41:10.892Z,61.83
2023-04-15T02:43:39.971Z,61.03
2023-04-15T02:46:08.451Z,56.08
2023-04-15T02:48:37.085Z,58.78
2023-04-15T02:51:19.798Z,54.15
2023-04-15T02:53:48.923Z,60.85
2023-04-15T02:56:17.495Z,54.03
2023-04-15T02:58:46.437Z,57.72
2023-04-15T03:01:15.059Z,56.35
2023-04-15T03:03:43.741Z,60.67
2023-04-15T03:06:12.158Z,56.38
2023-04-15T03:08:41.833Z,59.00
2023-04-15T03:11:10.200Z,56.97
2023-04-15T03:13:39.514Z,54.78
2023-04-15T03:16:08.506Z,54.13
2023-04-15T03:18:36.872Z,58.38
2023-04-15T03:21:05.292Z,57.13
2023-04-15T03:23:33.653Z,57.00
2023-04-15T03:26:05.037Z,55.17
2023-04-15T03:28:33.707Z,52.40
2023-04-15T03:31:02.146Z,52.05
2023-04-15T03:33:30.753Z,54.50
2023-04-15T03:35:59.164Z,59.03
2023-04-15T03:38:27.517Z,53.50
2023-04-15T03:40:55.832Z,55.83
2023-04-15T03:43:25.697Z,52.92
2023-04-15T03:45:54.096Z,57.10
2023-04-15T03:48:22.451Z,51.50
2023-04-15T03:50:50.952Z,53.67
2023-04-15T03:53:19.306Z,49.50
2023-04-15T03:55:47.752Z,53.38
2023-04-15T03:58:16.332Z,55.10
2023-04-15T04:00:46.000Z,50.30
2023-04-15T04:03:14.594Z,49.95
2023-04-15T04:05:44.417Z,51.97
2023-04-15T04:08:13.978Z,50.95
2023-04-15T04:10:42.389Z,48.60
2023-04-15T04:13:10.739Z,48.20
2023-04-15T04:15:39.198Z,50.30
2023-04-15T04:18:08.925Z,44.17
2023-04-15T04:20:37.411Z,46.72
2023-04-15T04:23:06.023Z,48.30
2023-04-15T04:25:34.413Z,47.13
2023-04-15T04:28:02.795Z,47.05
2023-04-15T04:30:31.324Z,45.35
2023-04-15T04:32:59.860Z,46.38
2023-04-15T04:35:29.587Z,44.35
2023-04-15T04:37:57.951Z,42.97
2023-04-15T04:40:26.365Z,43.95
2023-04-15T04:42:54.838Z,43.22
2023-04-15T04:45:23.618Z,41.70
2023-04-15T04:47:51.985Z,44.58
2023-04-15T04:50:20.440Z,42.40
2023-04-15T04:52:50.631Z,40.40
2023-04-15T04:55:19.183Z,40.88
2023-04-15T04:57:47.763Z,43.72
2023-04-15T05:00:16.420Z,46.60
2023-04-15T05:02:45.205Z,42.72
2023-04-15T05:05:14.163Z,42.50
2023-04-15T05:07:42.623Z,40.20
2023-04-15T05:10:12.826Z,43.08
2023-04-15T05:12:41.245Z,38.80
2023-04-15T05:15:10.828Z,39.78
2023-04-15T05:17:39.162Z,39.17
2023-04-15T05:20:09.684Z,37.92
2023-04-15T05:22:38.268Z,39.15
2023-04-15T05:25:07.297Z,35.58
2023-04-15T05:27:37.013Z,36.83
2023-04-15T05:30:06.119Z,34.25
2023-04-15T05:32:34.522Z,36.92
2023-04-15T05:35:03.126Z,33.25
2023-04-15T05:37:31.502Z,33.13
2023-04-15T05:39:59.864Z,31.70
2023-04-15T05:42:28.240Z,33.10
2023-04-15T05:44:58.315Z,29.42
2023-04-15T05:47:27.438Z,32.08
2023-04-15T05:49:55.940Z,30.45
2023-04-15T05:52:24.334Z,31.00
2023-04-15T05:54:52.726Z,29.02
2023-04-15T05:57:21.246Z,29.50
2023-04-15T05:59:51.607Z,31.13
2023-04-15T06:02:21.376Z,28.30
2023-04-15T06:04:50.041Z,28.25
2023-04-15T06:07:18.407Z,30.90
2023-04-15T06:09:46.761Z,29.35
2023-04-15T06:12:15.167Z,27.60
2023-04-15T06:14:43.789Z,27.33
2023-04-15T06:17:14.866Z,28.38
2023-04-15T06:19:44.565Z,26.45
2023-04-15T06:22:12.885Z,29.25
2023-04-15T06:24:46.156Z,27.88
2023-04-15T06:27:14.508Z,27.58
2023-04-15T06:29:42.834Z,30.05
2023-04-15T06:32:12.333Z,26.95
2023-04-15T06:34:40.799Z,28.17
2023-04-15T06:37:11.137Z,27.73
2023-04-15T06:39:39.493Z,28.80
2023-04-15T06:42:07.934Z,25.73
2023-04-15T06:44:37.113Z,26.17
2023-04-15T06:47:05.485Z,23.20
2023-04-15T06:49:34.079Z,33.13
2023-04-15T06:52:02.818Z,27.55
2023-04-15T06:54:32.646Z,23.33
2023-04-15T06:57:01.720Z,24.77
2023-04-15T06:59:30.040Z,25.70
2023-04-15T07:01:58.401Z,23.50
2023-04-15T07:04:27.812Z,22.60
2023-04-15T07:06:56.871Z,26.08
2023-04-15T07:09:25.726Z,23.73
2023-04-15T07:11:55.470Z,27.48
2023-04-15T07:14:23.797Z,24.30
2023-04-15T07:16:52.355Z,23.55
2023-04-15T07:19:20.792Z,23.23
2023-04-15T07:21:49.157Z,23.35
2023-04-15T07:24:19.624Z,23.35
2023-04-15T07:26:48.740Z,22.40
2023-04-15T07:29:18.414Z,24.88
2023-04-15T07:31:46.787Z,25.52
2023-04-15T07:34:15.146Z,22.52
2023-04-15T07:36:43.513Z,24.92
2023-04-15T07:39:11.961Z,25.95
2023-04-15T07:41:40.317Z,26.20
2023-04-15T07:44:09.261Z,23.13
2023-04-15T07:46:39.197Z,24.08
2023-04-15T07:49:07.642Z,25.08
2023-04-15T07:51:36.149Z,27.98
2023-04-15T07:54:04.676Z,29.20
2023-04-15T07:56:33.062Z,24.92
2023-04-15T07:59:02.352Z,25.25
2023-04-15T08:01:31.546Z,24.92
2023-04-15T08:04:01.760Z,25.50
2023-04-15T08:06:30.340Z,24.35
2023-04-15T08:08:58.762Z,25.85
2023-04-15T08:11:27.718Z,32.58
2023-04-15T08:13:56.141Z,24.45
2023-04-15T08:16:26.964Z,25.75
2023-04-15T08:18:58.576Z,26.63
2023-04-15T08:21:30.789Z,26.08
2023-04-15T08:24:00.153Z,28.00
2023-04-15T08:26:28.500Z,27.10
2023-04-15T08:28:57.442Z,24.88
2023-04-15T08:31:27.954Z,24.27
2023-04-15T08:33:57.969Z,24.63
2023-04-15T08:36:27.113Z,25.00
2023-04-15T08:38:56.962Z,26.20
2023-04-15T08:41:27.530Z,30.90
2023-04-15T08:43:59.169Z,27.42
2023-04-15T08:46:27.942Z,27.27
2023-04-15T08:48:58.428Z,28.55
2023-04-15T08:51:27.823Z,26.25
2023-04-15T08:53:57.674Z,29.17
2023-04-15T08:56:27.733Z,26.48
2023-04-15T08:58:56.233Z,29.02
2023-04-15T09:01:24.873Z,25.58
2023-04-15T09:03:54.527Z,29.40
2023-04-15T09:06:23.805Z,26.70
2023-04-15T09:08:52.915Z,25.08
2023-04-15T09:11:23.517Z,29.23
2023-04-15T09:13:52.287Z,27.30
2023-04-15T09:16:20.718Z,26.92
2023-04-15T09:18:49.113Z,27.88
2023-04-15T09:21:19.229Z,30.17
2023-04-15T09:23:58.249Z,27.55
2023-04-15T09:26:35.417Z,28.50
2023-04-15T09:29:07.476Z,25.58
2023-04-15T09:31:36.747Z,25.35
2023-04-15T09:34:05.730Z,27.63
2023-04-15T09:36:52.621Z,24.77
2023-04-15T09:39:21.496Z,26.45
2023-04-15T09:42:06.748Z,25.42
2023-04-15T09:44:35.625Z,27.38
2023-04-15T09:47:04.183Z,24.17
2023-04-15T09:49:32.912Z,25.35
2023-04-15T09:52:06.293Z,24.73
2023-04-15T09:54:36.590Z,27.73
2023-04-15T09:57:10.927Z,26.80
2023-04-15T10:02:08.356Z,26.67
2023-04-15T10:04:39.869Z,24.73
2023-04-15T10:07:10.049Z,27.15
2023-04-15T10:09:40.048Z,30.08
2023-04-15T10:12:10.337Z,24.65
2023-04-15T10:14:40.830Z,25.55
2023-04-15T10:17:12.511Z,24.70
2023-04-15T10:19:42.553Z,25.95
2023-04-15T10:22:11.704Z,38.42
2023-04-15T10:24:40.897Z,27.33
2023-04-15T10:27:11.678Z,25.42
2023-04-15T10:29:40.629Z,24.92
2023-04-15T10:32:10.357Z,27.52
2023-04-15T10:34:39.414Z,23.58
2023-04-15T10:37:11.338Z,24.75
2023-04-15T10:39:41.650Z,24.65
2023-04-15T10:42:12.400Z,24.70
2023-04-15T10:44:43.104Z,23.10
2023-04-15T10:47:13.609Z,24.20
2023-04-15T10:49:46.480Z,23.73
2023-04-15T10:52:16.513Z,24.42
2023-04-15T10:54:45.945Z,25.75
2023-04-15T10:57:24.451Z,27.98
2023-04-15T11:00:11.361Z,25.90
2023-04-15T11:02:42.291Z,24.33
2023-04-15T11:05:12.879Z,23.17
2023-04-15T11:07:48.583Z,22.42
2023-04-15T11:10:55.979Z,23.20
2023-04-15T11:13:29.501Z,22.85
2023-04-15T11:16:01.328Z,27.10
2023-04-15T11:18:35.447Z,28.88
2023-04-15T11:21:06.725Z,24.20
2023-04-15T11:23:38.473Z,23.42
2023-04-15T11:26:09.762Z,29.70
2023-04-15T11:28:41.418Z,34.92
2023-04-15T11:31:12.026Z,30.80
2023-04-15T11:33:47.180Z,29.13
2023-04-15T11:36:15.708Z,57.47
2023-04-15T11:38:45.838Z,29.70
2023-04-15T11:41:14.478Z,22.42
2023-04-15T11:43:44.168Z,27.95
2023-04-15T11:46:12.699Z,32.90
2023-04-15T11:48:44.784Z,25.00
2023-04-15T11:51:14.769Z,26.27
2023-04-15T11:53:45.887Z,24.73
2023-04-15T11:56:19.338Z,22.65
2023-04-15T11:58:50.956Z,26.87
2023-04-15T12:01:19.779Z,25.85
2023-04-15T12:03:49.237Z,23.95
2023-04-15T12:06:20.071Z,23.00
2023-04-15T12:09:05.795Z,26.20
2023-04-15T12:11:39.721Z,26.00
2023-04-15T12:14:12.804Z,24.92
2023-04-15T12:16:48.703Z,24.52
2023-04-15T12:19:22.246Z,26.02
2023-04-15T12:21:50.860Z,25.83
2023-04-15T12:24:22.536Z,24.55
2023-04-15T12:26:52.252Z,25.70
2023-04-15T12:29:26.110Z,26.95
2023-04-15T12:31:56.330Z,23.63
2023-04-15T12:34:29.860Z,23.52
2023-04-15T12:36:59.511Z,54.22
2023-04-15T12:39:30.601Z,22.63
2023-04-15T12:42:00.354Z,20.63
2023-04-15T12:44:30.557Z,22.15
2023-04-15T12:46:59.948Z,23.65
2023-04-15T12:49:29.290Z,22.63
2023-04-15T12:51:59.533Z,21.73
2023-04-15T12:54:28.233Z,21.90
2023-04-15T12:57:00.060Z,20.58
2023-04-15T12:59:30.055Z,23.27
2023-04-15T13:02:00.741Z,19.98
2023-04-15T13:04:30.935Z,19.33
2023-04-15T13:06:59.829Z,18.73
2023-04-15T13:09:28.301Z,21.42
2023-04-15T13:11:57.640Z,21.48
2023-04-15T13:14:27.081Z,21.85
2023-04-15T13:16:58.202Z,21.70
2023-04-15T13:19:26.804Z,19.70
2023-04-15T13:21:55.481Z,24.85
2023-04-15T13:24:23.874Z,21.00
2023-04-15T13:26:53.446Z,19.67
2023-04-15T13:29:22.276Z,60.83
2023-04-15T13:31:51.027Z,37.40
2023-04-15T13:34:20.950Z,32.85
2023-04-15T13:36:49.452Z,20.30
2023-04-15T13:39:17.921Z,18.30
2023-04-15T13:41:46.504Z,20.67
2023-04-15T13:44:14.950Z,19.67
2023-04-15T13:46:43.494Z,18.90
2023-04-15T13:49:12.029Z,18.65
2023-04-15T13:51:42.374Z,24.58
2023-04-15T13:54:10.815Z,19.48
2023-04-15T13:56:39.238Z,20.73
2023-04-15T13:59:08.680Z,22.60
2023-04-15T14:01:37.191Z,19.70
2023-04-15T14:04:06.182Z,20.20
2023-04-15T14:06:35.181Z,26.63
2023-04-15T14:09:05.323Z,17.73
2023-04-15T14:11:35.415Z,16.25
2023-04-15T14:14:04.142Z,17.80
2023-04-15T14:16:33.815Z,42.00
2023-04-15T14:19:02.768Z,19.23
2023-04-15T14:21:32.567Z,18.10
2023-04-15T14:24:01.132Z,15.50
2023-04-15T14:26:30.937Z,22.80
2023-04-15T14:28:59.305Z,19.13
2023-04-15T14:31:27.715Z,18.77
2023-04-15T14:33:56.286Z,18.40
2023-04-15T14:36:24.649Z,17.85
2023-04-15T14:38:53.084Z,19.17
2023-04-15T14:41:22.668Z,18.27
2023-04-15T14:43:52.556Z,18.40
2023-04-15T14:46:21.053Z,18.20
2023-04-15T14:48:49.549Z,18.38
2023-04-15T14:51:18.040Z,19.00
2023-04-15T14:53:46.659Z,18.25
2023-04-15T14:56:15.216Z,18.15
2023-04-15T14:58:43.612Z,19.17
2023-04-15T15:01:13.515Z,17.45
2023-04-15T15:03:42.444Z,15.80
2023-04-15T15:06:11.019Z,17.80
2023-04-15T15:08:39.483Z,16.80
2023-04-15T15:11:07.813Z,16.00
2023-04-15T15:13:36.285Z,16.13
2023-04-15T15:16:04.930Z,16.50
2023-04-15T15:18:34.761Z,30.15
2023-04-15T15:21:03.150Z,19.48
2023-04-15T15:23:31.943Z,16.17
2023-04-15T15:26:00.410Z,16.38
2023-04-15T15:28:28.857Z,17.80
2023-04-15T15:30:57.373Z,17.38
2023-04-15T15:33:25.770Z,15.98
2023-04-15T15:35:55.564Z,18.52
2023-04-15T15:38:24.044Z,17.77
2023-04-15T15:40:52.458Z,17.58
2023-04-15T15:43:20.832Z,17.42
2023-04-15T15:45:51.670Z,18.77
2023-04-15T15:48:20.220Z,17.27
2023-04-15T15:50:48.591Z,16.10
2023-04-15T15:53:20.873Z,16.73
2023-04-15T15:55:49.357Z,15.60
2023-04-15T15:58:17.703Z,16.25
2023-04-15T16:00:46.125Z,15.60
2023-04-15T16:03:14.902Z,15.77
2023-04-15T16:05:43.869Z,15.55
2023-04-15T16:08:12.266Z,17.25
2023-04-15T16:10:42.083Z,16.90
2023-04-15T16:13:10.656Z,15.20
2023-04-15T16:15:39.062Z,15.25
2023-04-15T16:18:07.453Z,18.52
2023-04-15T16:20:35.856Z,17.58
2023-04-15T16:23:12.766Z,29.27
2023-04-15T16:25:43.969Z,24.38
2023-04-15T16:28:25.582Z,24.55
2023-04-15T16:30:54.637Z,16.85
2023-04-15T16:33:23.073Z,20.27
2023-04-15T16:35:52.092Z,16.10
2023-04-15T16:38:20.749Z,15.35
2023-04-15T16:40:51.447Z,18.08
2023-04-15T16:43:20.121Z,16.35
2023-04-15T16:45:51.213Z,15.73
2023-04-15T16:48:20.620Z,21.08
2023-04-15T16:50:49.679Z,15.50
2023-04-15T16:53:18.070Z,15.15
2023-04-15T16:55:46.561Z,17.35
2023-04-15T16:58:16.352Z,16.00
2023-04-15T17:00:44.751Z,19.15
2023-04-15T17:03:13.494Z,16.38
2023-04-15T17:05:42.374Z,16.23
2023-04-15T17:08:10.856Z,18.45
2023-04-15T17:10:39.470Z,26.73
2023-04-15T17:13:08.134Z,16.25
2023-04-15T17:15:38.035Z,18.48
2023-04-15T17:18:06.546Z,16.13
2023-04-15T17:20:35.327Z,16.33
2023-04-15T17:23:04.771Z,14.43
2023-04-15T17:25:33.145Z,17.70
2023-04-15T17:28:01.880Z,16.20
2023-04-15T17:30:30.353Z,16.10
2023-04-15T17:33:00.094Z,15.48
2023-04-15T17:35:28.500Z,15.15
2023-04-15T17:37:56.861Z,16.88
2023-04-15T17:40:25.302Z,14.38
2023-04-15T17:42:53.625Z,13.40
2023-04-15T17:45:21.955Z,15.05
2023-04-15T17:47:50.343Z,16.40
2023-04-15T17:50:20.299Z,18.90
2023-04-15T17:52:48.688Z,20.20
2023-04-15T17:55:17.178Z,16.30
2023-04-15T17:57:47.094Z,23.98
2023-04-15T18:00:15.814Z,18.92
2023-04-15T18:02:44.659Z,21.55
2023-04-15T18:05:13.181Z,24.98
2023-04-15T18:07:43.038Z,17.08
2023-04-15T18:10:11.767Z,15.45
2023-04-15T18:12:40.127Z,54.30
2023-04-15T18:15:09.998Z,17.83
2023-04-15T18:17:38.428Z,16.48
2023-04-15T18:20:07.948Z,18.25
2023-04-15T18:22:36.415Z,18.20
2023-04-15T18:25:07.389Z,16.60
2023-04-15T18:27:38.919Z,17.33
2023-04-15T18:30:08.551Z,16.15
2023-04-15T18:32:37.549Z,18.05
2023-04-15T18:35:07.496Z,17.88
2023-04-15T18:37:35.931Z,15.80
2023-04-15T18:40:04.445Z,16.48
2023-04-15T18:42:34.178Z,16.27
2023-04-15T18:45:02.553Z,17.50
2023-04-15T18:47:31.191Z,17.17
2023-04-15T18:49:59.618Z,16.42
2023-04-15T18:52:28.000Z,16.73
2023-04-15T18:54:56.353Z,16.27
2023-04-15T18:57:31.029Z,20.55
2023-04-15T19:00:02.004Z,19.05
2023-04-15T19:02:30.642Z,18.98
2023-04-15T19:04:59.048Z,20.13
2023-04-15T19:07:27.447Z,16.38
2023-04-15T19:09:55.809Z,21.35
2023-04-15T19:12:24.382Z,16.40
2023-04-15T19:14:52.733Z,28.20
2023-04-15T19:17:22.533Z,15.73
2023-04-15T19:19:51.112Z,15.68
2023-04-15T19:22:19.671Z,17.25
2023-04-15T19:24:48.189Z,20.40
2023-04-15T19:27:16.708Z,23.35
2023-04-15T19:29:45.276Z,19.98
2023-04-15T19:32:14.273Z,22.10
2023-04-15T19:34:44.000Z,23.98
2023-04-15T19:37:12.662Z,33.03
2023-04-15T19:39:41.083Z,26.23
2023-04-15T19:42:09.449Z,22.08
2023-04-15T19:44:42.589Z,26.02
2023-04-15T19:47:11.144Z,29.65
2023-04-15T19:49:39.560Z,27.85
2023-04-15T19:52:09.254Z,24.75
2023-04-15T19:54:37.867Z,26.30
2023-04-15T19:57:06.498Z,26.75
2023-04-15T19:59:34.901Z,26.77
2023-04-15T20:02:03.515Z,25.85
2023-04-15T20:04:32.274Z,26.70
2023-04-15T20:07:00.947Z,26.50
2023-04-15T20:09:30.756Z,27.92
2023-04-15T20:12:46.714Z,31.23
2023-04-15T20:14:47.719Z,29.63
2023-04-15T20:17:16.222Z,30.35
2023-04-15T20:19:44.647Z,33.40
2023-04-15T20:22:13.104Z,27.83
2023-04-15T20:24:42.844Z,32.70
2023-04-15T20:27:11.233Z,34.22
2023-04-15T20:29:39.674Z,31.55
2023-04-15T20:32:11.259Z,26.52
2023-04-15T20:34:40.074Z,32.78
2023-04-15T20:37:08.453Z,30.30
2023-04-15T20:39:36.827Z,26.58
2023-04-15T20:42:10.067Z,31.35
2023-04-15T20:44:39.403Z,29.27
2023-04-15T20:47:08.582Z,31.33
2023-04-15T20:49:37.248Z,26.83
2023-04-15T20:52:07.298Z,31.63
2023-04-15T20:54:35.837Z,28.33
2023-04-15T20:57:04.190Z,31.02
2023-04-15T20:59:34.900Z,28.88
2023-04-15T21:02:03.504Z,29.20
2023-04-15T21:04:31.946Z,33.55
2023-04-15T21:07:00.358Z,32.92
2023-04-15T21:09:28.722Z,31.73
2023-04-15T21:12:01.743Z,31.58
2023-04-15T21:14:30.930Z,27.65
2023-04-15T21:17:03.336Z,30.45
2023-04-15T21:19:31.690Z,27.73
2023-04-15T21:22:00.097Z,29.65
2023-04-15T21:24:28.682Z,31.60
2023-04-15T21:26:57.330Z,34.83
2023-04-15T21:29:25.750Z,31.33
2023-04-15T21:31:56.821Z,32.08
2023-04-15T21:34:26.664Z,31.23
2023-04-15T21:36:55.036Z,31.95
2023-04-15T21:39:23.553Z,39.72
2023-04-15T21:41:51.930Z,31.73
2023-04-15T21:44:20.297Z,28.40
2023-04-15T21:46:51.312Z,32.25
2023-04-15T21:49:20.416Z,31.38
2023-04-15T21:51:50.336Z,31.30
2023-04-15T21:54:18.678Z,30.25
2023-04-15T21:56:49.717Z,30.55
2023-04-15T21:59:18.201Z,31.88
2023-04-15T22:01:49.410Z,32.03
2023-04-15T22:04:18.412Z,29.92
2023-04-15T22:06:46.933Z,28.88
2023-04-15T22:09:17.018Z,37.22
2023-04-15T22:11:47.158Z,34.78
2023-04-15T22:14:15.503Z,30.10
2023-04-15T22:16:44.388Z,33.45
2023-04-15T22:19:12.802Z,31.88
2023-04-15T22:21:41.155Z,31.05
2023-04-15T22:24:36.706Z,29.88
2023-04-15T22:26:59.802Z,29.23
2023-04-15T22:29:28.161Z,34.80
2023-04-15T22:31:56.507Z,34.05
2023-04-15T22:34:25.145Z,36.90
2023-04-15T22:36:53.624Z,34.55
2023-04-15T22:39:22.086Z,29.88
2023-04-15T22:41:51.316Z,31.17
2023-04-15T22:44:21.046Z,31.95
2023-04-15T22:46:51.676Z,29.52
2023-04-15T22:49:20.078Z,32.67
2023-04-15T22:51:48.464Z,30.45
2023-04-15T22:54:16.839Z,29.98
2023-04-15T22:56:45.337Z,31.52
2023-04-15T22:59:13.733Z,33.47
2023-04-15T23:01:43.603Z,30.60
2023-04-15T23:04:22.935Z,29.38
2023-04-15T23:06:55.233Z,30.35
2023-04-15T23:09:23.635Z,29.85
2023-04-15T23:11:52.378Z,30.30
2023-04-15T23:14:20.928Z,31.85
2023-04-15T23:16:50.649Z,30.42
2023-04-15T23:19:19.024Z,31.52
2023-04-15T23:21:47.481Z,33.55
2023-04-15T23:24:15.858Z,30.20
2023-04-15T23:26:44.298Z,32.88
2023-04-15T23:29:12.621Z,32.63
2023-04-15T23:31:41.881Z,32.22
2023-04-15T23:34:11.724Z,29.33
2023-04-15T23:36:40.494Z,32.40
2023-04-15T23:39:09.059Z,32.78
2023-04-15T23:41:37.657Z,38.85
2023-04-15T23:44:06.400Z,35.08
2023-04-15T23:46:34.845Z,33.20
2023-04-15T23:49:03.274Z,33.50
2023-04-15T23:51:32.985Z,30.17
2023-04-15T23:54:01.314Z,35.88
2023-04-15T23:56:29.747Z,35.88
2023-04-15T23:58:58.066Z,39.63
